sensor_id;sensor_type;location;lat;lon;timestamp;P1;durP1;ratioP1;P2;durP2;ratioP2
36659;SDS011;22654;51.054;3.654;2022-08-01T00:01:40;10.75;;;5.93;;
36659;SDS011;22654;51.054;3.654;2022-08-01T00:04:05;10.75;;;6.10;;
36659;SDS011;22654;51.054;3.654;2022-08-01T00:06:31;11.45;;;7.38;;
36659;SDS011;22654;51.054;3.654;2022-08-01T00:08:57;13.02;;;7.43;;
36659;SDS011;22654;51.054;3.654;2022-08-01T00:11:23;11.82;;;7.10;;
36659;SDS011;22654;51.054;3.654;2022-08-01T00:13:49;11.40;;;7.72;;
36659;SDS011;22654;51.054;3.654;2022-08-01T00:16:14;14.38;;;8.23;;
36659;SDS011;22654;51.054;3.654;2022-08-01T00:18:41;13.00;;;8.40;;
36659;SDS011;22654;51.054;3.654;2022-08-01T00:21:07;14.07;;;8.32;;
36659;SDS011;22654;51.054;3.654;2022-08-01T00:23:32;17.05;;;10.15;;
36659;SDS011;22654;51.054;3.654;2022-08-01T00:25:58;18.85;;;11.23;;
36659;SDS011;22654;51.054;3.654;2022-08-01T00:28:24;18.83;;;10.73;;
36659;SDS011;22654;51.054;3.654;2022-08-01T00:30:50;17.30;;;11.02;;
36659;SDS011;22654;51.054;3.654;2022-08-01T00:33:16;14.15;;;10.60;;
36659;SDS011;22654;51.054;3.654;2022-08-01T00:35:41;18.08;;;12.02;;
36659;SDS011;22654;51.054;3.654;2022-08-01T00:38:08;15.95;;;12.15;;
36659;SDS011;22654;51.054;3.654;2022-08-01T00:40:33;16.42;;;11.05;;
36659;SDS011;22654;51.054;3.654;2022-08-01T00:42:59;18.40;;;11.45;;
36659;SDS011;22654;51.054;3.654;2022-08-01T00:45:25;21.80;;;13.60;;
36659;SDS011;22654;51.054;3.654;2022-08-01T00:47:51;21.95;;;12.98;;
36659;SDS011;22654;51.054;3.654;2022-08-01T00:50:17;26.70;;;14.15;;
36659;SDS011;22654;51.054;3.654;2022-08-01T00:52:43;30.63;;;13.35;;
36659;SDS011;22654;51.054;3.654;2022-08-01T00:55:09;22.77;;;14.90;;
36659;SDS011;22654;51.054;3.654;2022-08-01T00:57:38;25.17;;;16.27;;
36659;SDS011;22654;51.054;3.654;2022-08-01T01:00:05;18.38;;;14.38;;
36659;SDS011;22654;51.054;3.654;2022-08-01T01:02:32;24.80;;;17.02;;
36659;SDS011;22654;51.054;3.654;2022-08-01T01:04:59;33.63;;;18.35;;
36659;SDS011;22654;51.054;3.654;2022-08-01T01:07:29;28.38;;;17.67;;
36659;SDS011;22654;51.054;3.654;2022-08-01T01:13:08;35.75;;;20.55;;
36659;SDS011;22654;51.054;3.654;2022-08-01T01:15:51;34.80;;;21.15;;
36659;SDS011;22654;51.054;3.654;2022-08-01T01:26:57;32.63;;;23.08;;
36659;SDS011;22654;51.054;3.654;2022-08-01T01:29:35;34.65;;;22.95;;
36659;SDS011;22654;51.054;3.654;2022-08-01T01:32:07;45.58;;;23.88;;
36659;SDS011;22654;51.054;3.654;2022-08-01T01:34:42;42.55;;;24.92;;
36659;SDS011;22654;51.054;3.654;2022-08-01T01:37:11;33.50;;;22.48;;
36659;SDS011;22654;51.054;3.654;2022-08-01T01:39:41;37.72;;;24.40;;
36659;SDS011;22654;51.054;3.654;2022-08-01T01:42:07;38.88;;;22.33;;
36659;SDS011;22654;51.054;3.654;2022-08-01T01:44:35;36.60;;;21.13;;
36659;SDS011;22654;51.054;3.654;2022-08-01T01:47:02;37.35;;;20.20;;
36659;SDS011;22654;51.054;3.654;2022-08-01T01:49:30;28.05;;;16.60;;
36659;SDS011;22654;51.054;3.654;2022-08-01T01:51:57;28.83;;;15.23;;
36659;SDS011;22654;51.054;3.654;2022-08-01T01:54:28;26.15;;;12.57;;
36659;SDS011;22654;51.054;3.654;2022-08-01T01:56:58;19.60;;;12.68;;
36659;SDS011;22654;51.054;3.654;2022-08-01T01:59:28;22.92;;;14.20;;
36659;SDS011;22654;51.054;3.654;2022-08-01T02:01:58;25.85;;;13.57;;
36659;SDS011;22654;51.054;3.654;2022-08-01T02:04:27;27.00;;;12.93;;
36659;SDS011;22654;51.054;3.654;2022-08-01T02:06:54;21.50;;;11.30;;
36659;SDS011;22654;51.054;3.654;2022-08-01T02:09:21;21.55;;;10.32;;
36659;SDS011;22654;51.054;3.654;2022-08-01T02:11:49;28.08;;;10.77;;
36659;SDS011;22654;51.054;3.654;2022-08-01T02:14:17;21.90;;;11.45;;
36659;SDS011;22654;51.054;3.654;2022-08-01T02:16:47;15.75;;;10.00;;
36659;SDS011;22654;51.054;3.654;2022-08-01T02:19:14;17.92;;;10.25;;
36659;SDS011;22654;51.054;3.654;2022-08-01T02:21:47;19.73;;;9.52;;
36659;SDS011;22654;51.054;3.654;2022-08-01T02:24:20;14.40;;;8.50;;
36659;SDS011;22654;51.054;3.654;2022-08-01T02:26:47;15.63;;;9.77;;
36659;SDS011;22654;51.054;3.654;2022-08-01T02:29:21;19.13;;;8.65;;
36659;SDS011;22654;51.054;3.654;2022-08-01T02:31:51;10.85;;;8.50;;
36659;SDS011;22654;51.054;3.654;2022-08-01T02:34:19;14.80;;;8.75;;
36659;SDS011;22654;51.054;3.654;2022-08-01T02:36:47;10.73;;;7.32;;
36659;SDS011;22654;51.054;3.654;2022-08-01T02:39:15;16.48;;;8.10;;
36659;SDS011;22654;51.054;3.654;2022-08-01T02:41:45;11.40;;;7.10;;
36659;SDS011;22654;51.054;3.654;2022-08-01T02:44:21;12.80;;;6.05;;
36659;SDS011;22654;51.054;3.654;2022-08-01T02:46:54;12.48;;;7.10;;
36659;SDS011;22654;51.054;3.654;2022-08-01T02:49:27;10.50;;;6.18;;
36659;SDS011;22654;51.054;3.654;2022-08-01T02:51:59;8.95;;;6.80;;
36659;SDS011;22654;51.054;3.654;2022-08-01T02:54:29;7.97;;;6.20;;
36659;SDS011;22654;51.054;3.654;2022-08-01T02:56:56;8.88;;;5.40;;
36659;SDS011;22654;51.054;3.654;2022-08-01T02:59:26;8.20;;;5.20;;
36659;SDS011;22654;51.054;3.654;2022-08-01T03:01:55;9.43;;;5.50;;
36659;SDS011;22654;51.054;3.654;2022-08-01T03:04:23;6.18;;;4.80;;
36659;SDS011;22654;51.054;3.654;2022-08-01T03:06:50;9.23;;;4.28;;
36659;SDS011;22654;51.054;3.654;2022-08-01T03:09:24;7.95;;;4.80;;
36659;SDS011;22654;51.054;3.654;2022-08-01T03:11:52;5.93;;;4.75;;
36659;SDS011;22654;51.054;3.654;2022-08-01T03:14:19;6.47;;;3.75;;
36659;SDS011;22654;51.054;3.654;2022-08-01T03:16:46;6.55;;;4.10;;
36659;SDS011;22654;51.054;3.654;2022-08-01T03:19:14;8.05;;;3.92;;
36659;SDS011;22654;51.054;3.654;2022-08-01T03:21:44;7.38;;;3.72;;
36659;SDS011;22654;51.054;3.654;2022-08-01T03:24:12;9.07;;;4.15;;
36659;SDS011;22654;51.054;3.654;2022-08-01T03:26:39;6.63;;;4.28;;
36659;SDS011;22654;51.054;3.654;2022-08-01T03:29:08;17.05;;;3.80;;
36659;SDS011;22654;51.054;3.654;2022-08-01T03:31:38;3.92;;;2.95;;
36659;SDS011;22654;51.054;3.654;2022-08-01T03:34:08;4.32;;;3.03;;
36659;SDS011;22654;51.054;3.654;2022-08-01T03:36:34;8.57;;;2.97;;
36659;SDS011;22654;51.054;3.654;2022-08-01T03:39:08;4.32;;;2.95;;
36659;SDS011;22654;51.054;3.654;2022-08-01T03:41:37;3.70;;;2.75;;
36659;SDS011;22654;51.054;3.654;2022-08-01T03:44:16;3.47;;;2.50;;
36659;SDS011;22654;51.054;3.654;2022-08-01T03:46:47;3.37;;;2.50;;
36659;SDS011;22654;51.054;3.654;2022-08-01T03:49:17;7.20;;;2.65;;
36659;SDS011;22654;51.054;3.654;2022-08-01T03:52:04;3.20;;;2.90;;
36659;SDS011;22654;51.054;3.654;2022-08-01T03:54:33;5.80;;;3.22;;
36659;SDS011;22654;51.054;3.654;2022-08-01T03:57:01;4.88;;;3.10;;
36659;SDS011;22654;51.054;3.654;2022-08-01T03:59:29;4.80;;;3.17;;
36659;SDS011;22654;51.054;3.654;2022-08-01T04:01:56;8.07;;;3.05;;
36659;SDS011;22654;51.054;3.654;2022-08-01T04:04:23;8.48;;;3.05;;
36659;SDS011;22654;51.054;3.654;2022-08-01T04:06:50;4.47;;;3.20;;
36659;SDS011;22654;51.054;3.654;2022-08-01T04:09:19;5.43;;;3.65;;
36659;SDS011;22654;51.054;3.654;2022-08-01T04:11:45;10.45;;;3.83;;
36659;SDS011;22654;51.054;3.654;2022-08-01T04:14:12;5.10;;;3.70;;
36659;SDS011;22654;51.054;3.654;2022-08-01T04:16:38;4.53;;;3.42;;
36659;SDS011;22654;51.054;3.654;2022-08-01T04:19:04;7.25;;;3.53;;
36659;SDS011;22654;51.054;3.654;2022-08-01T04:21:34;5.50;;;3.92;;
36659;SDS011;22654;51.054;3.654;2022-08-01T04:24:08;4.18;;;3.65;;
36659;SDS011;22654;51.054;3.654;2022-08-01T04:26:37;6.78;;;4.05;;
36659;SDS011;22654;51.054;3.654;2022-08-01T04:29:04;3.60;;;3.30;;
36659;SDS011;22654;51.054;3.654;2022-08-01T04:31:32;4.43;;;3.50;;
36659;SDS011;22654;51.054;3.654;2022-08-01T04:34:00;4.22;;;2.80;;
36659;SDS011;22654;51.054;3.654;2022-08-01T04:36:27;3.78;;;3.05;;
36659;SDS011;22654;51.054;3.654;2022-08-01T04:38:57;5.22;;;3.53;;
36659;SDS011;22654;51.054;3.654;2022-08-01T04:41:25;3.85;;;3.47;;
36659;SDS011;22654;51.054;3.654;2022-08-01T04:43:52;5.07;;;2.92;;
36659;SDS011;22654;51.054;3.654;2022-08-01T04:46:20;3.42;;;3.10;;
36659;SDS011;22654;51.054;3.654;2022-08-01T04:48:46;5.95;;;3.90;;
36659;SDS011;22654;51.054;3.654;2022-08-01T04:51:14;4.63;;;3.72;;
36659;SDS011;22654;51.054;3.654;2022-08-01T04:53:40;5.32;;;3.35;;
36659;SDS011;22654;51.054;3.654;2022-08-01T04:56:07;6.03;;;3.53;;
36659;SDS011;22654;51.054;3.654;2022-08-01T04:58:33;5.30;;;3.28;;
36659;SDS011;22654;51.054;3.654;2022-08-01T05:00:58;4.88;;;3.40;;
36659;SDS011;22654;51.054;3.654;2022-08-01T05:03:24;6.30;;;3.55;;
36659;SDS011;22654;51.054;3.654;2022-08-01T05:05:50;4.93;;;4.07;;
36659;SDS011;22654;51.054;3.654;2022-08-01T05:08:16;5.55;;;3.65;;
36659;SDS011;22654;51.054;3.654;2022-08-01T05:10:42;5.20;;;4.13;;
36659;SDS011;22654;51.054;3.654;2022-08-01T05:13:08;7.68;;;4.10;;
36659;SDS011;22654;51.054;3.654;2022-08-01T05:15:34;4.50;;;3.33;;
36659;SDS011;22654;51.054;3.654;2022-08-01T05:18:04;5.40;;;3.72;;
36659;SDS011;22654;51.054;3.654;2022-08-01T05:20:30;6.47;;;3.58;;
36659;SDS011;22654;51.054;3.654;2022-08-01T05:22:55;5.10;;;3.50;;
36659;SDS011;22654;51.054;3.654;2022-08-01T05:25:22;3.42;;;3.13;;
36659;SDS011;22654;51.054;3.654;2022-08-01T05:27:48;4.03;;;3.05;;
36659;SDS011;22654;51.054;3.654;2022-08-01T05:30:14;4.78;;;3.45;;
36659;SDS011;22654;51.054;3.654;2022-08-01T05:32:40;4.38;;;2.72;;
36659;SDS011;22654;51.054;3.654;2022-08-01T05:35:07;3.28;;;2.83;;
36659;SDS011;22654;51.054;3.654;2022-08-01T05:37:33;4.60;;;2.67;;
36659;SDS011;22654;51.054;3.654;2022-08-01T05:39:59;2.58;;;2.38;;
36659;SDS011;22654;51.054;3.654;2022-08-01T05:42:25;5.18;;;2.80;;
36659;SDS011;22654;51.054;3.654;2022-08-01T05:44:51;5.00;;;2.55;;
36659;SDS011;22654;51.054;3.654;2022-08-01T05:47:17;3.50;;;2.80;;
36659;SDS011;22654;51.054;3.654;2022-08-01T05:49:44;5.93;;;2.80;;
36659;SDS011;22654;51.054;3.654;2022-08-01T05:52:11;3.83;;;3.35;;
36659;SDS011;22654;51.054;3.654;2022-08-01T05:54:37;5.18;;;2.97;;
36659;SDS011;22654;51.054;3.654;2022-08-01T05:57:03;3.67;;;3.38;;
36659;SDS011;22654;51.054;3.654;2022-08-01T05:59:29;4.43;;;3.53;;
36659;SDS011;22654;51.054;3.654;2022-08-01T06:01:55;4.30;;;3.45;;
36659;SDS011;22654;51.054;3.654;2022-08-01T06:04:21;3.53;;;3.20;;
36659;SDS011;22654;51.054;3.654;2022-08-01T06:06:47;4.75;;;2.92;;
36659;SDS011;22654;51.054;3.654;2022-08-01T06:09:13;4.00;;;2.63;;
36659;SDS011;22654;51.054;3.654;2022-08-01T06:11:39;3.65;;;2.38;;
36659;SDS011;22654;51.054;3.654;2022-08-01T06:14:05;4.20;;;3.13;;
36659;SDS011;22654;51.054;3.654;2022-08-01T06:16:31;3.08;;;2.17;;
36659;SDS011;22654;51.054;3.654;2022-08-01T06:18:57;6.43;;;2.30;;
36659;SDS011;22654;51.054;3.654;2022-08-01T06:21:23;5.50;;;2.10;;
36659;SDS011;22654;51.054;3.654;2022-08-01T06:23:49;5.40;;;3.38;;
36659;SDS011;22654;51.054;3.654;2022-08-01T06:26:17;3.40;;;1.95;;
36659;SDS011;22654;51.054;3.654;2022-08-01T06:28:43;4.63;;;2.28;;
36659;SDS011;22654;51.054;3.654;2022-08-01T06:31:09;5.50;;;2.20;;
36659;SDS011;22654;51.054;3.654;2022-08-01T06:33:37;3.08;;;2.03;;
36659;SDS011;22654;51.054;3.654;2022-08-01T06:36:03;2.80;;;2.05;;
36659;SDS011;22654;51.054;3.654;2022-08-01T06:38:29;3.17;;;2.25;;
36659;SDS011;22654;51.054;3.654;2022-08-01T06:40:54;3.90;;;1.77;;
36659;SDS011;22654;51.054;3.654;2022-08-01T06:43:20;2.88;;;1.90;;
36659;SDS011;22654;51.054;3.654;2022-08-01T06:45:46;3.05;;;2.15;;
36659;SDS011;22654;51.054;3.654;2022-08-01T06:48:12;7.28;;;2.03;;
36659;SDS011;22654;51.054;3.654;2022-08-01T06:50:38;4.75;;;2.17;;
36659;SDS011;22654;51.054;3.654;2022-08-01T06:53:04;3.38;;;1.65;;
36659;SDS011;22654;51.054;3.654;2022-08-01T06:55:30;2.22;;;1.25;;
36659;SDS011;22654;51.054;3.654;2022-08-01T06:57:56;2.17;;;1.63;;
36659;SDS011;22654;51.054;3.654;2022-08-01T07:00:22;3.95;;;2.38;;
36659;SDS011;22654;51.054;3.654;2022-08-01T07:02:50;4.00;;;1.90;;
36659;SDS011;22654;51.054;3.654;2022-08-01T07:05:18;2.15;;;1.63;;
36659;SDS011;22654;51.054;3.654;2022-08-01T07:07:45;1.80;;;1.50;;
36659;SDS011;22654;51.054;3.654;2022-08-01T07:10:12;5.38;;;1.52;;
36659;SDS011;22654;51.054;3.654;2022-08-01T07:12:38;1.40;;;1.30;;
36659;SDS011;22654;51.054;3.654;2022-08-01T07:15:05;2.90;;;1.25;;
36659;SDS011;22654;51.054;3.654;2022-08-01T07:17:31;2.83;;;1.88;;
36659;SDS011;22654;51.054;3.654;2022-08-01T07:19:57;3.15;;;1.23;;
36659;SDS011;22654;51.054;3.654;2022-08-01T07:22:23;4.72;;;1.73;;
36659;SDS011;22654;51.054;3.654;2022-08-01T07:24:48;3.13;;;1.40;;
36659;SDS011;22654;51.054;3.654;2022-08-01T07:27:14;2.35;;;1.25;;
36659;SDS011;22654;51.054;3.654;2022-08-01T07:29:40;6.78;;;1.30;;
36659;SDS011;22654;51.054;3.654;2022-08-01T07:32:06;2.60;;;1.10;;
36659;SDS011;22654;51.054;3.654;2022-08-01T07:34:32;3.90;;;1.38;;
36659;SDS011;22654;51.054;3.654;2022-08-01T07:36:57;2.30;;;1.10;;
36659;SDS011;22654;51.054;3.654;2022-08-01T07:39:23;2.10;;;1.42;;
36659;SDS011;22654;51.054;3.654;2022-08-01T07:41:49;2.63;;;0.90;;
36659;SDS011;22654;51.054;3.654;2022-08-01T07:44:15;1.83;;;1.02;;
36659;SDS011;22654;51.054;3.654;2022-08-01T07:46:41;1.25;;;1.00;;
36659;SDS011;22654;51.054;3.654;2022-08-01T07:49:07;4.88;;;1.17;;
36659;SDS011;22654;51.054;3.654;2022-08-01T07:51:33;1.85;;;1.20;;
36659;SDS011;22654;51.054;3.654;2022-08-01T07:53:58;1.05;;;0.98;;
36659;SDS011;22654;51.054;3.654;2022-08-01T07:56:24;1.88;;;1.00;;
36659;SDS011;22654;51.054;3.654;2022-08-01T07:58:52;2.45;;;0.95;;
36659;SDS011;22654;51.054;3.654;2022-08-01T08:01:18;1.50;;;1.05;;
36659;SDS011;22654;51.054;3.654;2022-08-01T08:03:44;1.98;;;0.85;;
36659;SDS011;22654;51.054;3.654;2022-08-01T08:06:10;2.67;;;0.98;;
36659;SDS011;22654;51.054;3.654;2022-08-01T08:08:36;2.03;;;0.77;;
36659;SDS011;22654;51.054;3.654;2022-08-01T08:11:02;3.88;;;0.65;;
36659;SDS011;22654;51.054;3.654;2022-08-01T08:13:27;2.88;;;1.50;;
36659;SDS011;22654;51.054;3.654;2022-08-01T08:15:53;1.20;;;0.90;;
36659;SDS011;22654;51.054;3.654;2022-08-01T08:18:19;2.15;;;1.00;;
36659;SDS011;22654;51.054;3.654;2022-08-01T08:20:45;1.48;;;0.85;;
36659;SDS011;22654;51.054;3.654;2022-08-01T08:23:11;1.33;;;1.00;;
36659;SDS011;22654;51.054;3.654;2022-08-01T08:25:55;1.88;;;1.10;;
36659;SDS011;22654;51.054;3.654;2022-08-01T08:28:21;1.17;;;0.90;;
36659;SDS011;22654;51.054;3.654;2022-08-01T08:30:47;2.15;;;0.93;;
36659;SDS011;22654;51.054;3.654;2022-08-01T08:33:12;4.95;;;0.93;;
36659;SDS011;22654;51.054;3.654;2022-08-01T08:35:39;1.52;;;0.88;;
36659;SDS011;22654;51.054;3.654;2022-08-01T08:38:06;3.65;;;0.80;;
36659;SDS011;22654;51.054;3.654;2022-08-01T08:40:33;0.98;;;0.65;;
36659;SDS011;22654;51.054;3.654;2022-08-01T08:43:01;2.60;;;0.75;;
36659;SDS011;22654;51.054;3.654;2022-08-01T08:45:29;0.95;;;0.70;;
36659;SDS011;22654;51.054;3.654;2022-08-01T08:47:55;1.48;;;0.70;;
36659;SDS011;22654;51.054;3.654;2022-08-01T08:50:22;2.15;;;0.80;;
36659;SDS011;22654;51.054;3.654;2022-08-01T08:52:48;1.80;;;0.50;;
36659;SDS011;22654;51.054;3.654;2022-08-01T08:55:16;2.60;;;0.77;;
36659;SDS011;22654;51.054;3.654;2022-08-01T08:57:43;1.45;;;0.68;;
36659;SDS011;22654;51.054;3.654;2022-08-01T09:00:10;1.35;;;0.80;;
36659;SDS011;22654;51.054;3.654;2022-08-01T09:02:47;1.45;;;0.70;;
36659;SDS011;22654;51.054;3.654;2022-08-01T09:05:21;1.88;;;0.80;;
36659;SDS011;22654;51.054;3.654;2022-08-01T09:07:51;1.43;;;0.73;;
36659;SDS011;22654;51.054;3.654;2022-08-01T09:10:17;1.40;;;0.80;;
36659;SDS011;22654;51.054;3.654;2022-08-01T09:18:05;3.78;;;1.17;;
36659;SDS011;22654;51.054;3.654;2022-08-01T09:20:31;1.77;;;0.88;;
36659;SDS011;22654;51.054;3.654;2022-08-01T09:23:00;2.00;;;0.90;;
36659;SDS011;22654;51.054;3.654;2022-08-01T09:25:26;0.82;;;0.82;;
36659;SDS011;22654;51.054;3.654;2022-08-01T09:28:04;1.77;;;0.77;;
36659;SDS011;22654;51.054;3.654;2022-08-01T09:30:37;1.42;;;0.90;;
36659;SDS011;22654;51.054;3.654;2022-08-01T09:33:04;4.20;;;1.13;;
36659;SDS011;22654;51.054;3.654;2022-08-01T09:35:31;1.52;;;0.85;;
36659;SDS011;22654;51.054;3.654;2022-08-01T09:38:11;2.03;;;0.80;;
36659;SDS011;22654;51.054;3.654;2022-08-01T09:40:47;1.77;;;1.15;;
36659;SDS011;22654;51.054;3.654;2022-08-01T09:43:24;6.70;;;2.75;;
36659;SDS011;22654;51.054;3.654;2022-08-01T09:45:54;2.40;;;1.00;;
36659;SDS011;22654;51.054;3.654;2022-08-01T09:48:21;4.50;;;1.13;;
36659;SDS011;22654;51.054;3.654;2022-08-01T09:50:49;1.15;;;0.73;;
36659;SDS011;22654;51.054;3.654;2022-08-01T09:53:16;2.97;;;1.17;;
36659;SDS011;22654;51.054;3.654;2022-08-01T09:55:43;3.25;;;1.10;;
36659;SDS011;22654;51.054;3.654;2022-08-01T09:58:12;3.08;;;0.90;;
36659;SDS011;22654;51.054;3.654;2022-08-01T10:00:38;3.20;;;1.67;;
36659;SDS011;22654;51.054;3.654;2022-08-01T10:03:23;2.40;;;1.25;;
36659;SDS011;22654;51.054;3.654;2022-08-01T10:05:51;1.27;;;0.70;;
36659;SDS011;22654;51.054;3.654;2022-08-01T10:08:18;1.98;;;1.10;;
36659;SDS011;22654;51.054;3.654;2022-08-01T10:11:09;2.72;;;0.77;;
36659;SDS011;22654;51.054;3.654;2022-08-01T10:13:36;1.88;;;0.95;;
36659;SDS011;22654;51.054;3.654;2022-08-01T10:16:02;2.03;;;1.00;;
36659;SDS011;22654;51.054;3.654;2022-08-01T10:18:31;1.45;;;0.90;;
36659;SDS011;22654;51.054;3.654;2022-08-01T10:21:00;2.72;;;1.20;;
36659;SDS011;22654;51.054;3.654;2022-08-01T10:23:26;2.13;;;1.00;;
36659;SDS011;22654;51.054;3.654;2022-08-01T10:25:55;3.45;;;1.05;;
36659;SDS011;22654;51.054;3.654;2022-08-01T10:28:23;1.75;;;0.93;;
36659;SDS011;22654;51.054;3.654;2022-08-01T10:30:50;2.70;;;1.00;;
36659;SDS011;22654;51.054;3.654;2022-08-01T10:33:18;4.18;;;1.10;;
36659;SDS011;22654;51.054;3.654;2022-08-01T10:35:48;1.50;;;0.80;;
36659;SDS011;22654;51.054;3.654;2022-08-01T10:38:14;1.52;;;0.70;;
36659;SDS011;22654;51.054;3.654;2022-08-01T10:40:41;1.77;;;0.80;;
36659;SDS011;22654;51.054;3.654;2022-08-01T10:43:09;1.05;;;0.90;;
36659;SDS011;22654;51.054;3.654;2022-08-01T10:45:35;1.08;;;0.90;;
36659;SDS011;22654;51.054;3.654;2022-08-01T10:50:49;0.90;;;0.80;;
36659;SDS011;22654;51.054;3.654;2022-08-01T10:53:18;2.50;;;0.95;;
36659;SDS011;22654;51.054;3.654;2022-08-01T10:58:21;3.90;;;1.13;;
36659;SDS011;22654;51.054;3.654;2022-08-01T11:01:36;1.88;;;0.90;;
36659;SDS011;22654;51.054;3.654;2022-08-01T11:03:45;3.90;;;0.98;;
36659;SDS011;22654;51.054;3.654;2022-08-01T11:17:44;2.72;;;1.52;;
36659;SDS011;22654;51.054;3.654;2022-08-01T11:20:15;1.23;;;1.10;;
36659;SDS011;22654;51.054;3.654;2022-08-01T11:30:46;3.45;;;1.83;;
36659;SDS011;22654;51.054;3.654;2022-08-01T11:41:31;2.28;;;1.35;;
36659;SDS011;22654;51.054;3.654;2022-08-01T11:44:06;2.70;;;1.02;;
36659;SDS011;22654;51.054;3.654;2022-08-01T11:54:32;4.30;;;1.40;;
36659;SDS011;22654;51.054;3.654;2022-08-01T11:57:13;4.07;;;1.00;;
36659;SDS011;22654;51.054;3.654;2022-08-01T11:59:45;1.30;;;1.10;;
36659;SDS011;22654;51.054;3.654;2022-08-01T12:02:23;2.63;;;1.35;;
36659;SDS011;22654;51.054;3.654;2022-08-01T12:04:56;6.88;;;1.23;;
36659;SDS011;22654;51.054;3.654;2022-08-01T12:07:27;2.65;;;1.20;;
36659;SDS011;22654;51.054;3.654;2022-08-01T12:12:22;2.88;;;1.40;;
36659;SDS011;22654;51.054;3.654;2022-08-01T12:14:55;6.63;;;1.30;;
36659;SDS011;22654;51.054;3.654;2022-08-01T12:19:59;4.57;;;1.10;;
36659;SDS011;22654;51.054;3.654;2022-08-01T12:22:26;2.20;;;1.00;;
36659;SDS011;22654;51.054;3.654;2022-08-01T12:24:52;1.77;;;1.02;;
36659;SDS011;22654;51.054;3.654;2022-08-01T12:27:25;3.78;;;1.60;;
36659;SDS011;22654;51.054;3.654;2022-08-01T12:29:52;2.60;;;1.10;;
36659;SDS011;22654;51.054;3.654;2022-08-01T12:32:25;3.08;;;1.30;;
36659;SDS011;22654;51.054;3.654;2022-08-01T12:35:04;2.60;;;1.27;;
36659;SDS011;22654;51.054;3.654;2022-08-01T12:37:48;1.77;;;0.77;;
36659;SDS011;22654;51.054;3.654;2022-08-01T12:40:19;2.67;;;1.02;;
36659;SDS011;22654;51.054;3.654;2022-08-01T12:42:48;4.88;;;1.20;;
36659;SDS011;22654;51.054;3.654;2022-08-01T12:45:17;1.73;;;1.08;;
36659;SDS011;22654;51.054;3.654;2022-08-01T12:47:45;1.75;;;0.98;;
36659;SDS011;22654;51.054;3.654;2022-08-01T12:50:13;4.68;;;1.08;;
36659;SDS011;22654;51.054;3.654;2022-08-01T12:52:41;3.50;;;1.30;;
36659;SDS011;22654;51.054;3.654;2022-08-01T12:55:15;1.90;;;1.02;;
36659;SDS011;22654;51.054;3.654;2022-08-01T12:57:48;3.50;;;1.05;;
36659;SDS011;22654;51.054;3.654;2022-08-01T13:00:17;1.98;;;1.20;;
36659;SDS011;22654;51.054;3.654;2022-08-01T13:02:48;2.08;;;1.00;;
36659;SDS011;22654;51.054;3.654;2022-08-01T13:05:16;1.70;;;1.10;;
36659;SDS011;22654;51.054;3.654;2022-08-01T13:07:48;2.30;;;1.08;;
36659;SDS011;22654;51.054;3.654;2022-08-01T13:10:23;4.20;;;1.55;;
36659;SDS011;22654;51.054;3.654;2022-08-01T13:12:54;2.15;;;1.13;;
36659;SDS011;22654;51.054;3.654;2022-08-01T13:15:24;2.97;;;1.52;;
36659;SDS011;22654;51.054;3.654;2022-08-01T13:17:59;4.28;;;1.40;;
36659;SDS011;22654;51.054;3.654;2022-08-01T13:23:15;2.25;;;1.02;;
36659;SDS011;22654;51.054;3.654;2022-08-01T13:25:55;3.47;;;1.10;;
36659;SDS011;22654;51.054;3.654;2022-08-01T13:28:25;1.92;;;0.90;;
36659;SDS011;22654;51.054;3.654;2022-08-01T13:30:53;1.50;;;0.85;;
36659;SDS011;22654;51.054;3.654;2022-08-01T13:33:26;1.77;;;1.10;;
36659;SDS011;22654;51.054;3.654;2022-08-01T13:35:54;1.25;;;0.90;;
36659;SDS011;22654;51.054;3.654;2022-08-01T13:38:21;1.58;;;0.90;;
36659;SDS011;22654;51.054;3.654;2022-08-01T13:41:06;1.17;;;0.75;;
36659;SDS011;22654;51.054;3.654;2022-08-01T13:43:33;1.95;;;0.70;;
36659;SDS011;22654;51.054;3.654;2022-08-01T13:46:00;2.13;;;0.70;;
36659;SDS011;22654;51.054;3.654;2022-08-01T13:48:30;3.08;;;1.08;;
36659;SDS011;22654;51.054;3.654;2022-08-01T13:50:56;1.52;;;0.93;;
36659;SDS011;22654;51.054;3.654;2022-08-01T13:53:22;1.05;;;0.77;;
36659;SDS011;22654;51.054;3.654;2022-08-01T13:55:48;1.63;;;0.90;;
36659;SDS011;22654;51.054;3.654;2022-08-01T13:58:14;1.15;;;0.90;;
36659;SDS011;22654;51.054;3.654;2022-08-01T14:00:40;3.15;;;0.75;;
36659;SDS011;22654;51.054;3.654;2022-08-01T14:03:06;4.45;;;1.35;;
36659;SDS011;22654;51.054;3.654;2022-08-01T14:05:34;6.93;;;0.80;;
36659;SDS011;22654;51.054;3.654;2022-08-01T14:08:01;2.58;;;1.02;;
36659;SDS011;22654;51.054;3.654;2022-08-01T14:10:27;4.78;;;0.98;;
36659;SDS011;22654;51.054;3.654;2022-08-01T14:12:54;1.40;;;0.68;;
36659;SDS011;22654;51.054;3.654;2022-08-01T14:15:21;2.65;;;0.70;;
36659;SDS011;22654;51.054;3.654;2022-08-01T14:17:47;2.30;;;0.75;;
36659;SDS011;22654;51.054;3.654;2022-08-01T14:20:13;4.43;;;1.00;;
36659;SDS011;22654;51.054;3.654;2022-08-01T14:22:38;2.92;;;1.10;;
36659;SDS011;22654;51.054;3.654;2022-08-01T14:25:06;2.17;;;0.80;;
36659;SDS011;22654;51.054;3.654;2022-08-01T14:27:32;1.42;;;0.85;;
36659;SDS011;22654;51.054;3.654;2022-08-01T14:30:01;1.10;;;0.75;;
36659;SDS011;22654;51.054;3.654;2022-08-01T14:32:31;1.20;;;0.80;;
36659;SDS011;22654;51.054;3.654;2022-08-01T14:34:58;1.55;;;0.70;;
36659;SDS011;22654;51.054;3.654;2022-08-01T14:37:25;2.20;;;0.77;;
36659;SDS011;22654;51.054;3.654;2022-08-01T14:39:51;2.58;;;0.80;;
36659;SDS011;22654;51.054;3.654;2022-08-01T14:42:16;0.88;;;0.70;;
36659;SDS011;22654;51.054;3.654;2022-08-01T14:44:42;3.22;;;0.82;;
36659;SDS011;22654;51.054;3.654;2022-08-01T14:47:08;0.95;;;0.70;;
36659;SDS011;22654;51.054;3.654;2022-08-01T14:49:35;2.53;;;0.90;;
36659;SDS011;22654;51.054;3.654;2022-08-01T14:52:00;2.95;;;1.38;;
36659;SDS011;22654;51.054;3.654;2022-08-01T14:54:26;2.60;;;1.00;;
36659;SDS011;22654;51.054;3.654;2022-08-01T14:56:52;1.08;;;0.80;;
36659;SDS011;22654;51.054;3.654;2022-08-01T14:59:18;2.67;;;0.82;;
36659;SDS011;22654;51.054;3.654;2022-08-01T15:01:44;3.22;;;1.08;;
36659;SDS011;22654;51.054;3.654;2022-08-01T15:04:10;1.33;;;0.93;;
36659;SDS011;22654;51.054;3.654;2022-08-01T15:06:36;2.65;;;1.08;;
36659;SDS011;22654;51.054;3.654;2022-08-01T15:09:02;1.58;;;0.90;;
36659;SDS011;22654;51.054;3.654;2022-08-01T15:11:28;2.05;;;0.70;;
36659;SDS011;22654;51.054;3.654;2022-08-01T15:13:54;2.55;;;0.98;;
36659;SDS011;22654;51.054;3.654;2022-08-01T15:16:38;2.25;;;1.23;;
36659;SDS011;22654;51.054;3.654;2022-08-01T15:19:04;1.80;;;0.88;;
36659;SDS011;22654;51.054;3.654;2022-08-01T15:21:30;3.25;;;0.75;;
36659;SDS011;22654;51.054;3.654;2022-08-01T15:23:56;3.13;;;1.08;;
36659;SDS011;22654;51.054;3.654;2022-08-01T15:26:22;2.30;;;0.70;;
36659;SDS011;22654;51.054;3.654;2022-08-01T15:28:47;1.85;;;0.60;;
36659;SDS011;22654;51.054;3.654;2022-08-01T15:31:13;2.67;;;1.00;;
36659;SDS011;22654;51.054;3.654;2022-08-01T15:33:39;3.63;;;0.82;;
36659;SDS011;22654;51.054;3.654;2022-08-01T15:36:05;2.85;;;0.80;;
36659;SDS011;22654;51.054;3.654;2022-08-01T15:38:31;1.85;;;0.70;;
36659;SDS011;22654;51.054;3.654;2022-08-01T15:40:56;3.65;;;0.80;;
36659;SDS011;22654;51.054;3.654;2022-08-01T15:43:22;1.60;;;0.90;;
36659;SDS011;22654;51.054;3.654;2022-08-01T15:45:48;2.05;;;0.60;;
36659;SDS011;22654;51.054;3.654;2022-08-01T15:48:17;0.93;;;0.60;;
36659;SDS011;22654;51.054;3.654;2022-08-01T15:50:43;1.77;;;1.20;;
36659;SDS011;22654;51.054;3.654;2022-08-01T15:53:09;2.17;;;0.80;;
36659;SDS011;22654;51.054;3.654;2022-08-01T15:55:35;3.13;;;0.95;;